createdAt,value
2019-05-30T00:00:59.970Z,92.30
2019-05-30T00:03:29.605Z,92.60
2019-05-30T00:06:00.444Z,92.60
2019-05-30T00:08:30.122Z,92.80
2019-05-30T00:11:00.597Z,92.90
2019-05-30T00:13:30.326Z,93.10
2019-05-30T00:16:02.791Z,93.10
2019-05-30T00:18:32.519Z,93.30
2019-05-30T00:21:02.936Z,93.20
2019-05-30T00:23:32.599Z,93.30
2019-05-30T00:26:03.171Z,93.40
2019-05-30T00:28:32.836Z,93.50
2019-05-30T00:31:02.607Z,93.70
2019-05-30T00:33:32.156Z,93.80
2019-05-30T00:36:01.895Z,93.80
2019-05-30T00:38:31.467Z,93.90
2019-05-30T00:41:02.092Z,93.90
2019-05-30T00:43:31.775Z,93.80
2019-05-30T00:46:02.153Z,93.80
2019-05-30T00:48:31.786Z,93.70
2019-05-30T00:51:02.574Z,94.00
2019-05-30T00:53:32.296Z,94.00
2019-05-30T00:56:03.015Z,93.90
2019-05-30T00:58:32.715Z,94.30
2019-05-30T01:01:03.092Z,94.50
2019-05-30T01:03:32.736Z,94.50
2019-05-30T01:06:02.990Z,94.70
2019-05-30T01:08:32.844Z,94.70
2019-05-30T01:11:03.199Z,94.60
2019-05-30T01:13:32.966Z,94.60
2019-05-30T01:16:03.232Z,94.60
2019-05-30T01:18:33.974Z,94.70
2019-05-30T01:21:03.566Z,94.60
2019-05-30T01:23:33.210Z,94.70
2019-05-30T01:26:03.429Z,94.90
2019-05-30T01:28:33.133Z,95.00
2019-05-30T01:31:09.138Z,95.10
2019-05-30T01:33:34.038Z,95.20
2019-05-30T01:36:03.803Z,95.10
2019-05-30T01:38:33.481Z,95.20
2019-05-30T01:41:04.147Z,95.50
2019-05-30T01:43:33.956Z,95.60
2019-05-30T01:46:04.264Z,96.00
2019-05-30T01:48:35.029Z,96.20
2019-05-30T01:51:04.763Z,96.60
2019-05-30T01:53:34.306Z,96.60
2019-05-30T01:56:04.804Z,96.30
2019-05-30T01:58:34.488Z,96.10
2019-05-30T02:01:18.938Z,96.10
2019-05-30T02:03:35.578Z,96.10
2019-05-30T02:06:05.592Z,96.00
2019-05-30T02:08:35.242Z,95.90
2019-05-30T02:11:05.490Z,95.80
2019-05-30T02:13:43.025Z,96.00
2019-05-30T02:16:25.281Z,96.00
2019-05-30T02:18:57.091Z,96.10
2019-05-30T02:21:30.583Z,96.30
2019-05-30T02:24:03.792Z,96.50
2019-05-30T02:26:33.521Z,96.70
2019-05-30T02:29:04.109Z,96.90
2019-05-30T02:31:46.435Z,96.80
2019-05-30T02:34:16.013Z,96.80
2019-05-30T02:36:45.601Z,96.70
2019-05-30T02:39:15.134Z,96.90
2019-05-30T02:41:44.730Z,96.90
2019-05-30T02:44:14.354Z,96.60
2019-05-30T02:46:43.978Z,96.70
2019-05-30T02:49:14.085Z,96.90
2019-05-30T02:51:43.740Z,97.00
2019-05-30T02:54:13.516Z,97.10
2019-05-30T02:56:43.224Z,96.70
2019-05-30T02:59:13.649Z,96.80
2019-05-30T03:01:59.854Z,97.00
2019-05-30T03:04:14.830Z,97.60
2019-05-30T03:06:44.576Z,97.20
2019-05-30T03:09:14.214Z,96.90
2019-05-30T03:11:43.915Z,96.60
2019-05-30T03:14:19.085Z,96.50
2019-05-30T03:16:44.889Z,96.60
2019-05-30T03:19:14.446Z,96.80
2019-05-30T03:21:44.076Z,96.80
2019-05-30T03:24:14.293Z,96.80
2019-05-30T03:26:44.166Z,96.70
2019-05-30T03:29:14.472Z,96.90
2019-05-30T03:31:44.791Z,97.10
2019-05-30T03:34:26.320Z,97.00
2019-05-30T03:36:45.790Z,96.70
2019-05-30T03:39:15.656Z,96.70
2019-05-30T03:41:45.441Z,97.00
2019-05-30T03:44:15.654Z,96.80
2019-05-30T03:46:49.752Z,96.70
2019-05-30T03:49:23.405Z,96.90
2019-05-30T03:51:55.331Z,97.00
2019-05-30T03:54:26.377Z,97.10
2019-05-30T03:57:01.463Z,97.40
2019-05-30T03:59:34.760Z,96.80
2019-05-30T04:02:18.971Z,96.30
2019-05-30T04:04:52.008Z,96.30
2019-05-30T04:07:25.111Z,96.30
2019-05-30T04:09:57.394Z,96.70
2019-05-30T04:12:37.636Z,96.70
2019-05-30T04:15:12.576Z,96.60
2019-05-30T04:17:42.039Z,96.50
2019-05-30T04:20:13.806Z,95.90
2019-05-30T04:22:42.861Z,95.60
2019-05-30T04:25:12.614Z,95.30
2019-05-30T04:27:42.193Z,95.20
2019-05-30T04:30:11.966Z,94.00
2019-05-30T04:32:41.556Z,94.30
2019-05-30T04:35:12.345Z,93.70
2019-05-30T04:37:41.941Z,93.30
2019-05-30T04:40:13.342Z,93.30
2019-05-30T04:42:44.049Z,92.40
2019-05-30T04:45:13.740Z,91.80
2019-05-30T04:47:43.296Z,91.70
2019-05-30T04:50:14.358Z,90.80
2019-05-30T04:52:44.386Z,91.00
2019-05-30T04:55:16.028Z,90.30
2019-05-30T04:57:46.785Z,91.10
2019-05-30T05:00:19.314Z,90.70
2019-05-30T05:02:48.865Z,91.00
2019-05-30T05:05:24.075Z,89.40
2019-05-30T05:07:50.952Z,90.20
2019-05-30T05:10:22.322Z,90.70
2019-05-30T05:12:51.874Z,88.40
2019-05-30T05:15:22.790Z,89.00
2019-05-30T05:17:53.380Z,89.90
2019-05-30T05:20:23.540Z,89.90
2019-05-30T05:22:53.249Z,88.00
2019-05-30T05:25:23.602Z,87.90
2019-05-30T05:27:53.307Z,89.60
2019-05-30T05:30:24.306Z,89.00
2019-05-30T05:32:54.005Z,87.80
2019-05-30T05:35:23.573Z,88.30
2019-05-30T05:37:53.209Z,89.00
2019-05-30T05:40:22.777Z,89.90
2019-05-30T05:42:52.339Z,88.70
2019-05-30T05:45:22.843Z,88.90
2019-05-30T05:47:52.596Z,88.30
2019-05-30T05:50:22.573Z,86.40
2019-05-30T05:52:53.405Z,86.80
2019-05-30T05:55:23.011Z,86.40
2019-05-30T05:57:52.787Z,85.50
2019-05-30T06:00:23.296Z,84.40
2019-05-30T06:02:53.077Z,84.20
2019-05-30T06:05:22.669Z,83.50
2019-05-30T06:07:53.280Z,84.40
2019-05-30T06:10:23.712Z,83.50
2019-05-30T06:12:53.507Z,84.00
2019-05-30T06:15:23.105Z,84.40
2019-05-30T06:17:52.674Z,82.80
2019-05-30T06:20:23.496Z,84.10
2019-05-30T06:22:53.091Z,83.50
2019-05-30T06:25:25.151Z,82.80
2019-05-30T06:27:53.843Z,82.60
2019-05-30T06:30:24.445Z,82.20
2019-05-30T06:32:54.090Z,81.80
2019-05-30T06:35:24.963Z,81.80
2019-05-30T06:37:54.610Z,80.60
2019-05-30T06:40:25.575Z,80.60
2019-05-30T06:42:55.208Z,79.30
2019-05-30T06:45:25.620Z,79.40
2019-05-30T06:47:55.994Z,78.80
2019-05-30T06:50:26.739Z,77.80
2019-05-30T06:52:56.601Z,78.30
2019-05-30T06:55:27.214Z,77.30
2019-05-30T06:57:56.987Z,77.70
2019-05-30T07:00:27.996Z,76.40
2019-05-30T07:02:57.678Z,77.60
2019-05-30T07:05:29.611Z,76.70
2019-05-30T07:07:58.522Z,76.00
2019-05-30T07:10:28.833Z,75.30
2019-05-30T07:13:01.698Z,74.60
2019-05-30T07:15:31.477Z,74.30
2019-05-30T07:18:01.203Z,75.90
2019-05-30T07:20:31.707Z,71.90
2019-05-30T07:23:01.497Z,73.30
2019-05-30T07:25:31.944Z,72.70
2019-05-30T07:28:01.599Z,70.70
2019-05-30T07:30:32.057Z,69.70
2019-05-30T07:33:01.806Z,68.50
2019-05-30T07:35:32.045Z,70.00
2019-05-30T07:38:01.781Z,68.90
2019-05-30T07:40:31.427Z,68.10
2019-05-30T07:43:02.324Z,67.50
2019-05-30T07:45:33.046Z,67.90
2019-05-30T07:48:02.893Z,70.20
2019-05-30T07:50:32.591Z,66.90
2019-05-30T07:53:02.205Z,66.30
2019-05-30T07:55:33.048Z,66.00
2019-05-30T07:58:02.774Z,65.20
2019-05-30T08:00:33.511Z,66.20
2019-05-30T08:03:03.319Z,65.60
2019-05-30T08:05:32.889Z,67.10
2019-05-30T08:08:02.452Z,67.00
2019-05-30T08:10:32.111Z,67.10
2019-05-30T08:13:02.467Z,64.50
2019-05-30T08:15:33.384Z,63.90
2019-05-30T08:18:03.073Z,64.50
2019-05-30T08:20:33.809Z,62.90
2019-05-30T08:23:03.471Z,63.40
2019-05-30T08:25:36.576Z,61.40
2019-05-30T08:28:06.302Z,65.30
2019-05-30T08:30:36.650Z,62.00
2019-05-30T08:33:06.403Z,62.20
2019-05-30T08:35:46.703Z,61.00
2019-05-30T08:38:07.303Z,59.40
2019-05-30T08:40:37.871Z,61.70
2019-05-30T08:43:07.473Z,59.90
2019-05-30T08:45:38.023Z,60.70
2019-05-30T08:48:07.722Z,58.80
2019-05-30T08:50:41.318Z,57.20
2019-05-30T08:53:08.525Z,57.30
2019-05-30T08:55:38.598Z,58.40
2019-05-30T08:58:08.253Z,59.60
2019-05-30T09:00:37.805Z,57.80
2019-05-30T09:03:07.345Z,57.70
2019-05-30T09:05:36.909Z,57.30
2019-05-30T09:08:06.629Z,59.30
2019-05-30T09:10:37.408Z,58.30
2019-05-30T09:13:07.520Z,58.30
2019-05-30T09:15:37.945Z,57.60
2019-05-30T09:18:09.396Z,56.00
2019-05-30T09:20:39.823Z,56.00
2019-05-30T09:23:09.959Z,54.80
2019-05-30T09:25:40.008Z,55.10
2019-05-30T09:28:09.684Z,54.80
2019-05-30T09:30:39.860Z,58.70
2019-05-30T09:33:10.539Z,55.90
2019-05-30T09:35:41.374Z,55.10
2019-05-30T09:38:11.037Z,54.50
2019-05-30T09:40:41.995Z,55.20
2019-05-30T09:43:11.733Z,53.30
2019-05-30T09:45:42.350Z,53.70
2019-05-30T09:48:12.076Z,55.70
2019-05-30T09:50:42.492Z,52.90
2019-05-30T09:53:12.916Z,54.90
2019-05-30T09:55:43.292Z,53.80
2019-05-30T09:58:13.989Z,53.00
2019-05-30T10:00:45.452Z,53.00
2019-05-30T10:03:14.817Z,51.80
2019-05-30T10:05:45.147Z,52.90
2019-05-30T10:08:15.522Z,53.20
2019-05-30T10:10:45.672Z,51.80
2019-05-30T10:13:15.940Z,51.70
2019-05-30T10:15:46.861Z,50.90
2019-05-30T10:18:16.678Z,49.90
2019-05-30T10:20:48.162Z,50.80
2019-05-30T10:23:18.588Z,52.30
2019-05-30T10:25:51.233Z,50.20
2019-05-30T10:28:21.047Z,50.60
2019-05-30T10:30:55.346Z,51.60
2019-05-30T10:33:21.925Z,50.00
2019-05-30T10:35:52.279Z,48.10
2019-05-30T10:38:22.900Z,48.40
2019-05-30T10:40:54.071Z,49.00
2019-05-30T10:43:23.662Z,49.20
2019-05-30T10:45:53.447Z,48.30
2019-05-30T10:48:24.123Z,48.60
2019-05-30T10:50:54.456Z,47.30
2019-05-30T10:53:24.263Z,49.10
2019-05-30T10:55:54.844Z,47.60
2019-05-30T10:58:24.789Z,46.30
2019-05-30T11:01:00.035Z,50.70
2019-05-30T11:03:29.860Z,45.20
2019-05-30T11:06:09.408Z,47.50
2019-05-30T11:08:42.130Z,45.70
2019-05-30T11:11:11.741Z,47.30
2019-05-30T11:13:44.105Z,45.60
2019-05-30T11:16:13.741Z,44.20
2019-05-30T11:18:44.527Z,44.80
2019-05-30T11:21:14.228Z,48.10
2019-05-30T11:23:43.839Z,45.00
2019-05-30T11:26:13.418Z,45.60
2019-05-30T11:28:43.005Z,44.00
2019-05-30T11:31:13.585Z,43.90
2019-05-30T11:33:43.161Z,44.70
2019-05-30T11:36:12.837Z,45.40
2019-05-30T11:38:42.482Z,44.20
2019-05-30T11:41:12.050Z,45.30
2019-05-30T11:43:41.668Z,43.70
2019-05-30T11:46:11.306Z,43.50
2019-05-30T11:48:40.934Z,43.90
2019-05-30T11:51:10.501Z,43.80
2019-05-30T11:53:40.206Z,46.60
2019-05-30T11:56:09.834Z,44.10
2019-05-30T11:58:39.478Z,44.10
2019-05-30T12:01:09.229Z,43.50
2019-05-30T12:03:38.828Z,44.00
2019-05-30T12:06:08.369Z,43.60
2019-05-30T12:08:37.956Z,43.00
2019-05-30T12:11:07.517Z,45.30
2019-05-30T12:13:38.052Z,43.70
2019-05-30T12:16:07.706Z,41.60
2019-05-30T12:18:37.317Z,41.80
2019-05-30T12:21:06.950Z,40.60
2019-05-30T12:23:36.487Z,41.20
2019-05-30T12:26:06.144Z,42.40
2019-05-30T12:28:35.683Z,40.00
2019-05-30T12:31:06.723Z,39.80
2019-05-30T12:33:36.554Z,37.70
2019-05-30T12:36:06.202Z,38.40
2019-05-30T12:38:35.780Z,38.20
2019-05-30T12:41:05.634Z,38.40
2019-05-30T12:43:35.240Z,38.20
2019-05-30T12:46:04.884Z,38.30
2019-05-30T12:48:34.440Z,40.10
2019-05-30T12:51:03.973Z,39.70
2019-05-30T12:53:34.367Z,41.00
2019-05-30T12:56:04.431Z,39.60
2019-05-30T12:58:34.017Z,38.80
2019-05-30T13:01:03.760Z,39.90
2019-05-30T13:03:33.417Z,39.60
2019-05-30T13:06:03.440Z,40.60
2019-05-30T13:08:33.197Z,41.00
2019-05-30T13:11:03.826Z,41.30
2019-05-30T13:13:33.662Z,40.20
2019-05-30T13:16:07.145Z,40.20
2019-05-30T13:18:34.467Z,40.10
2019-05-30T13:21:04.276Z,41.30
2019-05-30T13:23:33.922Z,40.50
2019-05-30T13:26:03.854Z,41.20
2019-05-30T13:28:33.598Z,41.00
2019-05-30T13:31:04.546Z,39.70
2019-05-30T13:33:34.153Z,41.10
2019-05-30T13:36:05.043Z,40.40
2019-05-30T13:38:34.793Z,39.40
2019-05-30T13:41:05.824Z,39.30
2019-05-30T13:43:37.445Z,38.10
2019-05-30T13:46:08.393Z,39.10
2019-05-30T13:48:39.848Z,39.90
2019-05-30T13:51:09.484Z,40.70
2019-05-30T13:53:39.006Z,40.40
2019-05-30T13:56:09.884Z,40.80
2019-05-30T13:58:39.564Z,40.20
2019-05-30T14:01:13.309Z,37.90
2019-05-30T14:03:40.738Z,39.60
2019-05-30T14:06:11.292Z,38.90
2019-05-30T14:08:42.629Z,41.00
2019-05-30T14:11:12.954Z,40.40
2019-05-30T14:13:43.481Z,38.60
2019-05-30T14:16:13.034Z,41.10
2019-05-30T14:18:42.612Z,39.50
2019-05-30T14:21:12.213Z,39.20
2019-05-30T14:23:41.769Z,39.70
2019-05-30T14:26:11.625Z,40.40
2019-05-30T14:28:41.258Z,40.00
2019-05-30T14:31:11.994Z,41.10
2019-05-30T14:33:42.078Z,39.10
2019-05-30T14:36:13.291Z,39.70
2019-05-30T14:38:57.198Z,41.10
2019-05-30T14:41:14.197Z,41.10
2019-05-30T14:43:43.794Z,40.30
2019-05-30T14:46:13.362Z,42.70
2019-05-30T14:48:42.952Z,41.80
2019-05-30T14:51:12.947Z,41.20
2019-05-30T14:53:42.635Z,41.80
2019-05-30T14:56:13.531Z,42.60
2019-05-30T14:58:43.410Z,43.00
2019-05-30T15:01:13.400Z,42.60
2019-05-30T15:03:43.125Z,43.40
2019-05-30T15:06:15.762Z,41.60
2019-05-30T15:08:44.160Z,43.60
2019-05-30T15:11:13.894Z,44.20
2019-05-30T15:13:43.504Z,43.30
2019-05-30T15:16:13.153Z,43.00
2019-05-30T15:18:42.706Z,42.90
2019-05-30T15:21:12.534Z,43.00
2019-05-30T15:23:42.209Z,43.40
2019-05-30T15:26:12.106Z,43.40
2019-05-30T15:28:41.937Z,43.90
2019-05-30T15:31:12.432Z,45.10
2019-05-30T15:33:42.101Z,44.20
2019-05-30T15:36:12.754Z,44.50
2019-05-30T15:38:42.388Z,45.10
2019-05-30T15:41:13.079Z,44.90
2019-05-30T15:43:42.861Z,44.00
2019-05-30T15:46:12.461Z,45.00
2019-05-30T15:48:43.082Z,44.00
2019-05-30T15:51:12.708Z,44.60
2019-05-30T15:53:42.259Z,44.90
2019-05-30T15:56:13.147Z,45.80
2019-05-30T15:58:43.013Z,45.80
2019-05-30T16:01:13.849Z,46.30
2019-05-30T16:03:43.648Z,46.70
2019-05-30T16:06:14.409Z,47.00
2019-05-30T16:08:45.653Z,47.50
2019-05-30T16:11:17.003Z,47.30
2019-05-30T16:13:46.660Z,47.00
2019-05-30T16:16:17.567Z,46.90
2019-05-30T16:18:47.621Z,46.10
2019-05-30T16:21:18.600Z,46.70
2019-05-30T16:23:49.745Z,47.00
2019-05-30T16:26:19.665Z,47.90
2019-05-30T16:28:49.292Z,47.30
2019-05-30T16:31:19.848Z,47.60
2019-05-30T16:33:49.565Z,48.80
2019-05-30T16:36:20.304Z,48.20
2019-05-30T16:38:49.959Z,47.70
2019-05-30T16:41:20.445Z,48.10
2019-05-30T16:43:50.084Z,48.50
2019-05-30T16:46:20.555Z,50.10
2019-05-30T16:48:50.215Z,50.60
2019-05-30T16:51:21.135Z,49.70
2019-05-30T16:53:50.814Z,49.10
2019-05-30T16:56:21.421Z,48.80
2019-05-30T16:58:51.087Z,48.80
2019-05-30T17:01:21.950Z,48.90
2019-05-30T17:03:51.714Z,49.20
2019-05-30T17:06:22.049Z,49.50
2019-05-30T17:08:51.774Z,50.40
2019-05-30T17:11:21.468Z,50.20
2019-05-30T17:13:51.092Z,50.90
2019-05-30T17:16:22.037Z,55.50
2019-05-30T17:18:51.721Z,56.70
2019-05-30T17:21:22.710Z,58.60
2019-05-30T17:23:52.433Z,59.80
2019-05-30T17:26:23.184Z,60.50
2019-05-30T17:28:52.883Z,62.10
2019-05-30T17:31:23.827Z,62.80
2019-05-30T17:33:53.626Z,63.10
2019-05-30T17:36:24.194Z,63.40
2019-05-30T17:38:54.898Z,63.90
2019-05-30T17:41:24.807Z,63.70
2019-05-30T17:43:54.426Z,63.00
2019-05-30T17:46:25.375Z,63.40
2019-05-30T17:48:55.285Z,64.40
2019-05-30T17:51:25.874Z,63.90
2019-05-30T17:53:55.679Z,64.10
2019-05-30T17:56:26.145Z,64.90
2019-05-30T17:58:55.828Z,65.50
2019-05-30T18:01:26.327Z,64.40
2019-05-30T18:03:56.094Z,66.10
2019-05-30T18:06:26.573Z,66.20
2019-05-30T18:08:56.158Z,67.70
2019-05-30T18:11:26.871Z,67.20
2019-05-30T18:13:56.653Z,67.40
2019-05-30T18:16:27.155Z,67.60
2019-05-30T18:18:56.833Z,67.90
2019-05-30T18:21:27.270Z,68.10
2019-05-30T18:23:57.103Z,68.40
2019-05-30T18:26:27.550Z,68.70
2019-05-30T18:28:57.217Z,69.10
2019-05-30T18:31:27.948Z,69.20
2019-05-30T18:33:57.754Z,69.00
2019-05-30T18:36:28.407Z,70.20
2019-05-30T18:38:58.077Z,70.20
2019-05-30T18:41:28.702Z,70.70
2019-05-30T18:43:58.501Z,70.60
2019-05-30T18:46:29.149Z,70.00
2019-05-30T18:48:58.820Z,71.10
2019-05-30T18:51:30.328Z,72.40
2019-05-30T18:54:00.109Z,72.50
2019-05-30T18:56:30.687Z,72.70
2019-05-30T18:59:00.429Z,73.10
2019-05-30T19:01:31.480Z,72.80
2019-05-30T19:04:01.444Z,73.20
2019-05-30T19:06:31.921Z,72.80
2019-05-30T19:09:02.787Z,73.40
2019-05-30T19:11:35.326Z,73.40
2019-05-30T19:14:04.831Z,73.10
2019-05-30T19:16:34.664Z,72.80
2019-05-30T19:19:04.453Z,74.50
2019-05-30T19:21:34.221Z,74.40
2019-05-30T19:24:04.996Z,73.20
2019-05-30T19:26:34.732Z,73.30
2019-05-30T19:29:04.444Z,74.90
2019-05-30T19:31:34.775Z,77.00
2019-05-30T19:34:04.499Z,76.30
2019-05-30T19:36:35.137Z,76.50
2019-05-30T19:39:06.885Z,76.30
2019-05-30T19:41:51.385Z,76.10
2019-05-30T19:44:07.751Z,76.00
2019-05-30T19:46:38.366Z,76.90
2019-05-30T19:49:08.102Z,76.80
2019-05-30T19:51:39.099Z,77.00
2019-05-30T19:54:08.857Z,76.80
2019-05-30T19:56:40.828Z,76.90
2019-05-30T19:59:09.735Z,77.90
2019-05-30T20:01:40.039Z,76.40
2019-05-30T20:04:09.692Z,78.60
2019-05-30T20:06:39.309Z,78.70
2019-05-30T20:09:09.030Z,78.40
2019-05-30T20:11:39.336Z,78.90
2019-05-30T20:14:09.142Z,79.20
2019-05-30T20:16:39.848Z,79.20
2019-05-30T20:19:10.681Z,79.80
2019-05-30T20:21:40.269Z,79.20
2019-05-30T20:24:10.809Z,79.10
2019-05-30T20:26:42.773Z,79.30
2019-05-30T20:29:12.529Z,78.70
2019-05-30T20:31:43.490Z,80.90
2019-05-30T20:34:13.445Z,80.50
2019-05-30T20:36:43.066Z,80.70
2019-05-30T20:39:12.658Z,80.90
2019-05-30T20:41:43.224Z,80.80
2019-05-30T20:44:12.893Z,81.60
2019-05-30T20:46:43.244Z,81.00
2019-05-30T20:49:14.541Z,81.60
2019-05-30T20:51:44.547Z,81.80
2019-05-30T20:54:14.203Z,82.80
2019-05-30T20:56:44.144Z,83.20
2019-05-30T20:59:15.082Z,83.40
2019-05-30T21:01:45.885Z,84.00
2019-05-30T21:04:15.892Z,84.20
2019-05-30T21:06:47.714Z,84.20
2019-05-30T21:09:28.408Z,84.60
2019-05-30T21:11:51.865Z,85.10
2019-05-30T21:14:26.961Z,85.30
2019-05-30T21:16:54.071Z,85.50
2019-05-30T21:19:29.546Z,85.50
2019-05-30T21:21:59.393Z,85.70
2019-05-30T21:24:29.032Z,86.40
2019-05-30T21:26:58.795Z,86.70
2019-05-30T21:29:28.535Z,86.70
2019-05-30T21:31:59.632Z,87.30
2019-05-30T21:34:39.861Z,88.00
2019-05-30T21:37:17.476Z,89.20
2019-05-30T21:39:44.209Z,90.00
2019-05-30T21:42:15.951Z,89.60
2019-05-30T21:44:50.625Z,89.40
2019-05-30T21:47:17.065Z,89.40
2019-05-30T21:49:47.075Z,89.50
2019-05-30T21:52:16.757Z,89.30
2019-05-30T21:54:46.387Z,90.00
2019-05-30T21:57:15.985Z,90.00
2019-05-30T21:59:46.416Z,91.30
2019-05-30T22:02:16.211Z,91.80
2019-05-30T22:04:46.541Z,92.60
2019-05-30T22:07:16.453Z,92.50
2019-05-30T22:09:47.276Z,93.00
2019-05-30T22:12:18.060Z,93.40
2019-05-30T22:14:47.847Z,93.90
2019-05-30T22:17:17.454Z,94.40
2019-05-30T22:19:47.861Z,94.30
2019-05-30T22:22:17.612Z,94.80
2019-05-30T22:24:48.378Z,94.50
2019-05-30T22:27:18.044Z,94.20
2019-05-30T22:29:48.512Z,93.60
2019-05-30T22:32:18.522Z,93.50
2019-05-30T22:34:48.796Z,93.40
2019-05-30T22:37:18.458Z,93.40
2019-05-30T22:39:48.953Z,93.30
2019-05-30T22:42:18.713Z,93.40
2019-05-30T22:44:48.270Z,93.30
2019-05-30T22:47:18.849Z,94.00
2019-05-30T22:49:48.672Z,93.40
2019-05-30T22:52:18.502Z,93.80
2019-05-30T22:54:49.135Z,94.00
2019-05-30T22:57:18.729Z,94.00
2019-05-30T22:59:48.825Z,94.10
2019-05-30T23:02:18.510Z,93.90
2019-05-30T23:04:48.134Z,93.70
2019-05-30T23:07:17.785Z,93.80
2019-05-30T23:09:47.604Z,93.80
2019-05-30T23:12:17.261Z,93.60
2019-05-30T23:14:47.942Z,93.50
2019-05-30T23:17:17.683Z,94.00
2019-05-30T23:19:48.510Z,94.40
2019-05-30T23:22:18.350Z,94.60
2019-05-30T23:24:49.081Z,94.50
2019-05-30T23:27:18.811Z,94.70
2019-05-30T23:29:49.629Z,95.10
2019-05-30T23:32:19.443Z,95.60
2019-05-30T23:34:50.154Z,96.10
2019-05-30T23:37:19.833Z,96.40
2019-05-30T23:39:50.649Z,96.10
2019-05-30T23:42:20.429Z,96.50
2019-05-30T23:44:51.180Z,96.80
2019-05-30T23:47:20.937Z,96.80
2019-05-30T23:49:51.662Z,96.60
2019-05-30T23:52:21.489Z,96.30
2019-05-30T23:54:52.165Z,96.90
2019-05-30T23:57:21.920Z,97.10
2019-05-30T23:59:52.630Z,96.40
